sensor_id;sensor_type;location;lat;lon;timestamp;temperature;humidity
12315;DHT22;23886;46.614;14.276;2022-11-15T00:01:36;8.20;99.90
12315;DHT22;23886;46.614;14.276;2022-11-15T00:04:04;8.10;99.90
12315;DHT22;23886;46.614;14.276;2022-11-15T00:06:33;8.10;99.90
12315;DHT22;23886;46.614;14.276;2022-11-15T00:09:00;8.10;99.90
12315;DHT22;23886;46.614;14.276;2022-11-15T00:11:27;8.10;99.90
12315;DHT22;23886;46.614;14.276;2022-11-15T00:13:56;8.10;99.90
12315;DHT22;23886;46.614;14.276;2022-11-15T00:16:24;8.10;99.90
12315;DHT22;23886;46.614;14.276;2022-11-15T00:18:51;8.10;99.90
12315;DHT22;23886;46.614;14.276;2022-11-15T00:21:18;8.10;99.90
12315;DHT22;23886;46.614;14.276;2022-11-15T00:23:46;8.10;99.90
12315;DHT22;23886;46.614;14.276;2022-11-15T00:26:15;8.10;99.90
12315;DHT22;23886;46.614;14.276;2022-11-15T00:28:42;8.10;99.90
12315;DHT22;23886;46.614;14.276;2022-11-15T00:31:12;8.20;99.90
12315;DHT22;23886;46.614;14.276;2022-11-15T00:33:39;8.20;99.90
12315;DHT22;23886;46.614;14.276;2022-11-15T00:36:08;8.10;99.90
12315;DHT22;23886;46.614;14.276;2022-11-15T00:38:38;8.20;99.90
12315;DHT22;23886;46.614;14.276;2022-11-15T00:41:07;8.20;99.90
12315;DHT22;23886;46.614;14.276;2022-11-15T00:43:35;8.10;99.90
12315;DHT22;23886;46.614;14.276;2022-11-15T00:46:02;8.20;99.90
12315;DHT22;23886;46.614;14.276;2022-11-15T00:48:29;8.10;99.90
12315;DHT22;23886;46.614;14.276;2022-11-15T00:50:57;8.20;99.90
12315;DHT22;23886;46.614;14.276;2022-11-15T00:53:24;8.10;99.90
12315;DHT22;23886;46.614;14.276;2022-11-15T00:55:51;8.10;99.90
12315;DHT22;23886;46.614;14.276;2022-11-15T00:58:20;8.10;99.90
12315;DHT22;23886;46.614;14.276;2022-11-15T01:00:47;7.90;99.90
12315;DHT22;23886;46.614;14.276;2022-11-15T01:03:14;8.00;99.90
12315;DHT22;23886;46.614;14.276;2022-11-15T01:05:41;7.90;99.90
12315;DHT22;23886;46.614;14.276;2022-11-15T01:08:12;8.00;99.90
12315;DHT22;23886;46.614;14.276;2022-11-15T01:10:39;8.10;99.90
12315;DHT22;23886;46.614;14.276;2022-11-15T01:13:06;8.10;99.90
12315;DHT22;23886;46.614;14.276;2022-11-15T01:15:38;8.00;99.90
12315;DHT22;23886;46.614;14.276;2022-11-15T01:18:05;8.00;99.90
12315;DHT22;23886;46.614;14.276;2022-11-15T01:20:32;8.00;99.90
12315;DHT22;23886;46.614;14.276;2022-11-15T01:22:59;8.00;99.90
12315;DHT22;23886;46.614;14.276;2022-11-15T01:25:26;7.90;99.90
12315;DHT22;23886;46.614;14.276;2022-11-15T01:27:53;7.90;99.90
12315;DHT22;23886;46.614;14.276;2022-11-15T01:30:20;7.90;99.90
12315;DHT22;23886;46.614;14.276;2022-11-15T01:32:48;7.90;99.90
12315;DHT22;23886;46.614;14.276;2022-11-15T01:35:16;7.90;99.90
12315;DHT22;23886;46.614;14.276;2022-11-15T01:37:42;8.00;99.90
12315;DHT22;23886;46.614;14.276;2022-11-15T01:40:10;8.00;99.90
12315;DHT22;23886;46.614;14.276;2022-11-15T01:42:37;8.00;99.90
12315;DHT22;23886;46.614;14.276;2022-11-15T01:45:05;8.00;99.90
12315;DHT22;23886;46.614;14.276;2022-11-15T01:47:36;8.00;99.90
12315;DHT22;23886;46.614;14.276;2022-11-15T01:50:10;8.00;99.90
12315;DHT22;23886;46.614;14.276;2022-11-15T01:52:39;8.00;99.90
12315;DHT22;23886;46.614;14.276;2022-11-15T01:55:09;8.00;99.90
12315;DHT22;23886;46.614;14.276;2022-11-15T01:57:39;8.00;99.90
12315;DHT22;23886;46.614;14.276;2022-11-15T02:00:08;8.10;99.90
12315;DHT22;23886;46.614;14.276;2022-11-15T02:02:36;8.10;99.90
12315;DHT22;23886;46.614;14.276;2022-11-15T02:05:04;8.10;99.90
12315;DHT22;23886;46.614;14.276;2022-11-15T02:07:34;8.00;99.90
12315;DHT22;23886;46.614;14.276;2022-11-15T02:10:06;8.10;99.90
12315;DHT22;23886;46.614;14.276;2022-11-15T02:12:35;8.00;99.90
12315;DHT22;23886;46.614;14.276;2022-11-15T02:15:03;7.90;99.90
12315;DHT22;23886;46.614;14.276;2022-11-15T02:17:55;7.90;99.90
12315;DHT22;23886;46.614;14.276;2022-11-15T02:20:43;7.90;99.90
12315;DHT22;23886;46.614;14.276;2022-11-15T02:26:48;7.90;99.90
12315;DHT22;23886;46.614;14.276;2022-11-15T02:29:27;7.90;99.90
12315;DHT22;23886;46.614;14.276;2022-11-15T02:32:05;7.90;99.90
12315;DHT22;23886;46.614;14.276;2022-11-15T02:34:38;7.90;99.90
12315;DHT22;23886;46.614;14.276;2022-11-15T02:37:15;7.90;99.90
12315;DHT22;23886;46.614;14.276;2022-11-15T02:39:49;8.00;99.90
12315;DHT22;23886;46.614;14.276;2022-11-15T02:42:21;7.90;99.90
12315;DHT22;23886;46.614;14.276;2022-11-15T02:45:25;7.90;99.90
12315;DHT22;23886;46.614;14.276;2022-11-15T02:47:57;7.90;99.90
12315;DHT22;23886;46.614;14.276;2022-11-15T02:50:28;7.80;99.90
12315;DHT22;23886;46.614;14.276;2022-11-15T02:52:55;7.80;99.90
12315;DHT22;23886;46.614;14.276;2022-11-15T02:55:28;7.90;99.90
12315;DHT22;23886;46.614;14.276;2022-11-15T02:58:09;7.90;99.90
12315;DHT22;23886;46.614;14.276;2022-11-15T03:00:43;7.90;99.90
12315;DHT22;23886;46.614;14.276;2022-11-15T03:03:33;7.80;99.90
12315;DHT22;23886;46.614;14.276;2022-11-15T03:06:09;7.70;99.90
12315;DHT22;23886;46.614;14.276;2022-11-15T03:08:46;7.70;99.90
12315;DHT22;23886;46.614;14.276;2022-11-15T03:11:19;7.80;99.90
12315;DHT22;23886;46.614;14.276;2022-11-15T03:13:53;7.80;99.90
12315;DHT22;23886;46.614;14.276;2022-11-15T03:16:28;7.90;99.90
12315;DHT22;23886;46.614;14.276;2022-11-15T03:18:59;7.80;99.90
12315;DHT22;23886;46.614;14.276;2022-11-15T03:21:30;7.90;99.90
12315;DHT22;23886;46.614;14.276;2022-11-15T03:24:02;7.90;99.90
12315;DHT22;23886;46.614;14.276;2022-11-15T03:26:31;7.90;99.90
12315;DHT22;23886;46.614;14.276;2022-11-15T03:29:03;7.80;99.90
12315;DHT22;23886;46.614;14.276;2022-11-15T03:31:34;7.80;99.90
12315;DHT22;23886;46.614;14.276;2022-11-15T03:34:22;7.80;99.90
12315;DHT22;23886;46.614;14.276;2022-11-15T03:36:51;7.70;99.90
12315;DHT22;23886;46.614;14.276;2022-11-15T03:39:20;7.80;99.90
12315;DHT22;23886;46.614;14.276;2022-11-15T03:41:49;7.80;99.90
12315;DHT22;23886;46.614;14.276;2022-11-15T03:44:31;7.80;99.90
12315;DHT22;23886;46.614;14.276;2022-11-15T03:47:04;7.70;99.90
12315;DHT22;23886;46.614;14.276;2022-11-15T03:49:36;7.60;99.90
12315;DHT22;23886;46.614;14.276;2022-11-15T03:52:04;7.60;99.90
12315;DHT22;23886;46.614;14.276;2022-11-15T03:54:31;7.60;99.90
12315;DHT22;23886;46.614;14.276;2022-11-15T03:56:58;7.60;99.90
12315;DHT22;23886;46.614;14.276;2022-11-15T03:59:25;7.60;99.90
12315;DHT22;23886;46.614;14.276;2022-11-15T04:01:52;7.70;99.90
12315;DHT22;23886;46.614;14.276;2022-11-15T04:04:19;7.70;99.90
12315;DHT22;23886;46.614;14.276;2022-11-15T04:06:47;7.70;99.90
12315;DHT22;23886;46.614;14.276;2022-11-15T04:09:14;7.70;99.90
12315;DHT22;23886;46.614;14.276;2022-11-15T04:11:41;7.60;99.90
12315;DHT22;23886;46.614;14.276;2022-11-15T04:14:08;7.70;99.90
12315;DHT22;23886;46.614;14.276;2022-11-15T04:16:35;7.70;99.90
12315;DHT22;23886;46.614;14.276;2022-11-15T04:19:02;7.60;99.90
12315;DHT22;23886;46.614;14.276;2022-11-15T04:21:47;7.60;99.90
12315;DHT22;23886;46.614;14.276;2022-11-15T04:24:31;7.70;99.90
12315;DHT22;23886;46.614;14.276;2022-11-15T04:26:58;7.60;99.90
12315;DHT22;23886;46.614;14.276;2022-11-15T04:29:25;7.70;99.90
12315;DHT22;23886;46.614;14.276;2022-11-15T04:32:01;7.60;99.90
12315;DHT22;23886;46.614;14.276;2022-11-15T04:34:28;7.50;99.90
12315;DHT22;23886;46.614;14.276;2022-11-15T04:36:57;7.60;99.90
12315;DHT22;23886;46.614;14.276;2022-11-15T04:39:39;7.60;99.90
12315;DHT22;23886;46.614;14.276;2022-11-15T04:42:07;7.60;99.90
12315;DHT22;23886;46.614;14.276;2022-11-15T04:44:34;7.60;99.90
12315;DHT22;23886;46.614;14.276;2022-11-15T04:47:01;7.70;99.90
12315;DHT22;23886;46.614;14.276;2022-11-15T04:49:28;7.70;99.90
12315;DHT22;23886;46.614;14.276;2022-11-15T04:51:56;7.80;99.90
12315;DHT22;23886;46.614;14.276;2022-11-15T04:54:23;7.70;99.90
12315;DHT22;23886;46.614;14.276;2022-11-15T04:56:50;7.80;99.90
12315;DHT22;23886;46.614;14.276;2022-11-15T04:59:17;7.70;99.90
12315;DHT22;23886;46.614;14.276;2022-11-15T05:01:44;7.70;99.90
12315;DHT22;23886;46.614;14.276;2022-11-15T05:04:11;7.70;99.90
12315;DHT22;23886;46.614;14.276;2022-11-15T05:06:47;7.70;99.90
12315;DHT22;23886;46.614;14.276;2022-11-15T05:09:16;7.80;99.90
12315;DHT22;23886;46.614;14.276;2022-11-15T05:11:43;7.70;99.90
12315;DHT22;23886;46.614;14.276;2022-11-15T05:14:10;7.70;99.90
12315;DHT22;23886;46.614;14.276;2022-11-15T05:16:37;7.70;99.90
12315;DHT22;23886;46.614;14.276;2022-11-15T05:19:05;7.70;99.90
12315;DHT22;23886;46.614;14.276;2022-11-15T05:21:32;7.70;99.90
12315;DHT22;23886;46.614;14.276;2022-11-15T05:24:00;7.70;99.90
12315;DHT22;23886;46.614;14.276;2022-11-15T05:26:29;7.70;99.90
12315;DHT22;23886;46.614;14.276;2022-11-15T05:28:57;7.70;99.90
12315;DHT22;23886;46.614;14.276;2022-11-15T05:31:25;7.60;99.90
12315;DHT22;23886;46.614;14.276;2022-11-15T05:33:54;7.60;99.90
12315;DHT22;23886;46.614;14.276;2022-11-15T05:36:28;7.60;99.90
12315;DHT22;23886;46.614;14.276;2022-11-15T05:38:56;7.70;99.90
12315;DHT22;23886;46.614;14.276;2022-11-15T05:41:27;7.60;99.90
12315;DHT22;23886;46.614;14.276;2022-11-15T05:43:58;7.60;99.90
12315;DHT22;23886;46.614;14.276;2022-11-15T05:46:26;7.60;99.90
12315;DHT22;23886;46.614;14.276;2022-11-15T05:48:55;7.60;99.90
12315;DHT22;23886;46.614;14.276;2022-11-15T05:51:23;7.50;99.90
12315;DHT22;23886;46.614;14.276;2022-11-15T05:53:52;7.50;99.90
12315;DHT22;23886;46.614;14.276;2022-11-15T05:56:19;7.40;99.90
12315;DHT22;23886;46.614;14.276;2022-11-15T05:58:46;7.30;99.90
12315;DHT22;23886;46.614;14.276;2022-11-15T06:01:15;7.20;99.90
12315;DHT22;23886;46.614;14.276;2022-11-15T06:03:42;7.20;99.90
12315;DHT22;23886;46.614;14.276;2022-11-15T06:06:09;7.20;99.90
12315;DHT22;23886;46.614;14.276;2022-11-15T06:08:36;7.10;99.90
12315;DHT22;23886;46.614;14.276;2022-11-15T06:11:04;7.00;99.90
12315;DHT22;23886;46.614;14.276;2022-11-15T06:13:31;7.00;99.90
12315;DHT22;23886;46.614;14.276;2022-11-15T06:15:58;7.00;99.90
12315;DHT22;23886;46.614;14.276;2022-11-15T06:18:27;7.00;99.90
12315;DHT22;23886;46.614;14.276;2022-11-15T06:20:54;6.90;99.90
12315;DHT22;23886;46.614;14.276;2022-11-15T06:23:24;6.90;99.90
12315;DHT22;23886;46.614;14.276;2022-11-15T06:25:51;6.80;99.90
12315;DHT22;23886;46.614;14.276;2022-11-15T06:28:18;6.80;99.90
12315;DHT22;23886;46.614;14.276;2022-11-15T06:30:46;6.60;99.90
12315;DHT22;23886;46.614;14.276;2022-11-15T06:33:12;6.70;99.90
12315;DHT22;23886;46.614;14.276;2022-11-15T06:35:41;6.70;99.90
12315;DHT22;23886;46.614;14.276;2022-11-15T06:38:09;6.60;99.90
12315;DHT22;23886;46.614;14.276;2022-11-15T06:40:37;6.60;99.90
12315;DHT22;23886;46.614;14.276;2022-11-15T06:43:06;6.60;99.90
12315;DHT22;23886;46.614;14.276;2022-11-15T06:45:33;6.60;99.90
12315;DHT22;23886;46.614;14.276;2022-11-15T06:48:00;6.50;99.90
12315;DHT22;23886;46.614;14.276;2022-11-15T06:50:27;6.50;99.90
12315;DHT22;23886;46.614;14.276;2022-11-15T06:52:59;6.60;99.90
12315;DHT22;23886;46.614;14.276;2022-11-15T06:55:26;6.40;99.90
12315;DHT22;23886;46.614;14.276;2022-11-15T06:57:53;6.40;99.90
12315;DHT22;23886;46.614;14.276;2022-11-15T07:00:21;6.40;99.90
12315;DHT22;23886;46.614;14.276;2022-11-15T07:02:48;6.40;99.90
12315;DHT22;23886;46.614;14.276;2022-11-15T07:05:16;6.40;99.90
12315;DHT22;23886;46.614;14.276;2022-11-15T07:07:45;6.50;99.90
12315;DHT22;23886;46.614;14.276;2022-11-15T07:10:18;6.50;99.90
12315;DHT22;23886;46.614;14.276;2022-11-15T07:12:47;6.50;99.90
12315;DHT22;23886;46.614;14.276;2022-11-15T07:15:14;6.40;99.90
12315;DHT22;23886;46.614;14.276;2022-11-15T07:17:41;6.40;99.90
12315;DHT22;23886;46.614;14.276;2022-11-15T07:20:09;6.40;99.90
12315;DHT22;23886;46.614;14.276;2022-11-15T07:22:36;6.30;99.90
12315;DHT22;23886;46.614;14.276;2022-11-15T07:25:04;6.30;99.90
12315;DHT22;23886;46.614;14.276;2022-11-15T07:27:32;6.30;99.90
12315;DHT22;23886;46.614;14.276;2022-11-15T07:29:59;6.30;99.90
12315;DHT22;23886;46.614;14.276;2022-11-15T07:32:26;6.30;99.90
12315;DHT22;23886;46.614;14.276;2022-11-15T07:34:54;6.40;99.90
12315;DHT22;23886;46.614;14.276;2022-11-15T07:37:21;6.40;99.90
12315;DHT22;23886;46.614;14.276;2022-11-15T07:39:48;6.50;99.90
12315;DHT22;23886;46.614;14.276;2022-11-15T07:42:15;6.60;99.90
12315;DHT22;23886;46.614;14.276;2022-11-15T07:45:09;6.70;99.90
12315;DHT22;23886;46.614;14.276;2022-11-15T07:47:36;6.80;99.90
12315;DHT22;23886;46.614;14.276;2022-11-15T07:50:04;6.90;99.90
12315;DHT22;23886;46.614;14.276;2022-11-15T07:52:31;7.00;99.90
12315;DHT22;23886;46.614;14.276;2022-11-15T07:54:58;7.10;99.90
12315;DHT22;23886;46.614;14.276;2022-11-15T07:57:25;7.20;99.90
12315;DHT22;23886;46.614;14.276;2022-11-15T07:59:52;7.40;99.90
12315;DHT22;23886;46.614;14.276;2022-11-15T08:02:20;7.40;99.90
12315;DHT22;23886;46.614;14.276;2022-11-15T08:04:47;7.50;99.90
12315;DHT22;23886;46.614;14.276;2022-11-15T08:07:14;7.70;99.90
12315;DHT22;23886;46.614;14.276;2022-11-15T08:09:41;7.80;99.90
12315;DHT22;23886;46.614;14.276;2022-11-15T08:12:08;7.90;99.90
12315;DHT22;23886;46.614;14.276;2022-11-15T08:14:35;8.00;99.90
12315;DHT22;23886;46.614;14.276;2022-11-15T08:17:02;8.10;99.90
12315;DHT22;23886;46.614;14.276;2022-11-15T08:19:31;8.20;99.90
12315;DHT22;23886;46.614;14.276;2022-11-15T08:21:58;8.30;99.90
12315;DHT22;23886;46.614;14.276;2022-11-15T08:24:25;8.30;99.90
12315;DHT22;23886;46.614;14.276;2022-11-15T08:26:52;8.40;99.90
12315;DHT22;23886;46.614;14.276;2022-11-15T08:29:19;8.50;99.90
12315;DHT22;23886;46.614;14.276;2022-11-15T08:31:46;8.60;99.90
12315;DHT22;23886;46.614;14.276;2022-11-15T08:34:13;8.70;99.90
12315;DHT22;23886;46.614;14.276;2022-11-15T08:36:42;8.70;99.90
12315;DHT22;23886;46.614;14.276;2022-11-15T08:39:10;8.90;99.90
12315;DHT22;23886;46.614;14.276;2022-11-15T08:41:37;9.00;99.90
12315;DHT22;23886;46.614;14.276;2022-11-15T08:44:04;8.80;99.90
12315;DHT22;23886;46.614;14.276;2022-11-15T08:46:31;8.90;99.90
12315;DHT22;23886;46.614;14.276;2022-11-15T08:48:58;8.90;99.90
12315;DHT22;23886;46.614;14.276;2022-11-15T08:51:25;9.00;99.90
12315;DHT22;23886;46.614;14.276;2022-11-15T08:53:54;8.90;99.90
12315;DHT22;23886;46.614;14.276;2022-11-15T08:56:21;8.90;99.90
12315;DHT22;23886;46.614;14.276;2022-11-15T08:58:48;9.00;99.90
12315;DHT22;23886;46.614;14.276;2022-11-15T09:01:16;9.00;99.90
12315;DHT22;23886;46.614;14.276;2022-11-15T09:03:43;8.90;99.90
12315;DHT22;23886;46.614;14.276;2022-11-15T09:06:11;9.00;99.90
12315;DHT22;23886;46.614;14.276;2022-11-15T09:08:38;9.00;99.90
12315;DHT22;23886;46.614;14.276;2022-11-15T09:11:08;9.20;99.90
12315;DHT22;23886;46.614;14.276;2022-11-15T09:13:36;9.20;99.90
12315;DHT22;23886;46.614;14.276;2022-11-15T09:16:04;9.20;99.90
12315;DHT22;23886;46.614;14.276;2022-11-15T09:18:32;9.20;99.90
12315;DHT22;23886;46.614;14.276;2022-11-15T09:20:59;9.20;99.90
12315;DHT22;23886;46.614;14.276;2022-11-15T09:23:27;9.20;99.90
12315;DHT22;23886;46.614;14.276;2022-11-15T09:25:58;9.30;99.90
12315;DHT22;23886;46.614;14.276;2022-11-15T09:28:27;9.40;99.90
12315;DHT22;23886;46.614;14.276;2022-11-15T09:30:56;9.40;99.90
12315;DHT22;23886;46.614;14.276;2022-11-15T09:33:24;9.50;99.90
12315;DHT22;23886;46.614;14.276;2022-11-15T09:35:51;9.50;99.90
12315;DHT22;23886;46.614;14.276;2022-11-15T09:38:18;9.60;99.90
12315;DHT22;23886;46.614;14.276;2022-11-15T09:40:49;9.60;99.90
12315;DHT22;23886;46.614;14.276;2022-11-15T09:43:31;9.80;99.90
12315;DHT22;23886;46.614;14.276;2022-11-15T09:46:08;9.90;99.90
12315;DHT22;23886;46.614;14.276;2022-11-15T09:48:53;9.90;99.90
12315;DHT22;23886;46.614;14.276;2022-11-15T09:51:27;9.90;99.90
12315;DHT22;23886;46.614;14.276;2022-11-15T09:54:03;10.00;99.90
12315;DHT22;23886;46.614;14.276;2022-11-15T09:56:33;10.00;99.90
12315;DHT22;23886;46.614;14.276;2022-11-15T09:59:15;10.10;99.90
12315;DHT22;23886;46.614;14.276;2022-11-15T10:01:52;10.10;99.90
12315;DHT22;23886;46.614;14.276;2022-11-15T10:04:22;10.00;99.90
12315;DHT22;23886;46.614;14.276;2022-11-15T10:06:53;10.30;99.90
12315;DHT22;23886;46.614;14.276;2022-11-15T10:09:25;10.30;99.90
12315;DHT22;23886;46.614;14.276;2022-11-15T10:11:55;10.30;99.90
12315;DHT22;23886;46.614;14.276;2022-11-15T10:14:26;10.40;99.90
12315;DHT22;23886;46.614;14.276;2022-11-15T10:20:07;10.30;99.90
12315;DHT22;23886;46.614;14.276;2022-11-15T10:22:40;10.40;99.90
12315;DHT22;23886;46.614;14.276;2022-11-15T10:25:21;10.40;99.90
12315;DHT22;23886;46.614;14.276;2022-11-15T10:27:53;10.20;99.90
12315;DHT22;23886;46.614;14.276;2022-11-15T10:30:23;10.20;99.90
12315;DHT22;23886;46.614;14.276;2022-11-15T10:32:50;10.40;99.90
12315;DHT22;23886;46.614;14.276;2022-11-15T10:35:23;10.40;99.90
12315;DHT22;23886;46.614;14.276;2022-11-15T10:37:50;10.40;99.90
12315;DHT22;23886;46.614;14.276;2022-11-15T10:40:20;10.50;99.90
12315;DHT22;23886;46.614;14.276;2022-11-15T10:42:48;10.70;99.90
12315;DHT22;23886;46.614;14.276;2022-11-15T10:45:27;10.60;99.90
12315;DHT22;23886;46.614;14.276;2022-11-15T10:48:20;10.70;99.90
12315;DHT22;23886;46.614;14.276;2022-11-15T10:50:49;10.70;99.90
12315;DHT22;23886;46.614;14.276;2022-11-15T10:56:06;11.00;99.90
12315;DHT22;23886;46.614;14.276;2022-11-15T10:58:37;10.90;99.90
12315;DHT22;23886;46.614;14.276;2022-11-15T11:01:17;11.00;99.90
12315;DHT22;23886;46.614;14.276;2022-11-15T11:03:45;10.90;99.90
12315;DHT22;23886;46.614;14.276;2022-11-15T11:06:13;11.10;99.90
12315;DHT22;23886;46.614;14.276;2022-11-15T11:08:52;11.10;99.90
12315;DHT22;23886;46.614;14.276;2022-11-15T11:11:20;10.90;99.90
12315;DHT22;23886;46.614;14.276;2022-11-15T11:13:47;11.00;99.90
12315;DHT22;23886;46.614;14.276;2022-11-15T11:16:22;11.20;99.90
12315;DHT22;23886;46.614;14.276;2022-11-15T11:18:56;11.10;99.90
12315;DHT22;23886;46.614;14.276;2022-11-15T11:21:29;11.10;99.90
12315;DHT22;23886;46.614;14.276;2022-11-15T11:24:04;11.20;99.90
12315;DHT22;23886;46.614;14.276;2022-11-15T11:26:40;11.40;99.90
12315;DHT22;23886;46.614;14.276;2022-11-15T11:29:18;11.40;99.90
12315;DHT22;23886;46.614;14.276;2022-11-15T11:31:57;11.50;99.90
12315;DHT22;23886;46.614;14.276;2022-11-15T11:34:36;11.60;99.90
12315;DHT22;23886;46.614;14.276;2022-11-15T11:37:11;11.60;99.90
12315;DHT22;23886;46.614;14.276;2022-11-15T11:39:45;11.60;99.90
12315;DHT22;23886;46.614;14.276;2022-11-15T11:42:28;11.60;99.90
12315;DHT22;23886;46.614;14.276;2022-11-15T11:45:10;11.60;99.90
12315;DHT22;23886;46.614;14.276;2022-11-15T11:47:47;11.70;99.90
12315;DHT22;23886;46.614;14.276;2022-11-15T11:50:17;11.60;99.90
12315;DHT22;23886;46.614;14.276;2022-11-15T11:52:54;11.70;99.90
12315;DHT22;23886;46.614;14.276;2022-11-15T11:55:26;11.80;99.90
12315;DHT22;23886;46.614;14.276;2022-11-15T11:58:03;12.00;99.90
12315;DHT22;23886;46.614;14.276;2022-11-15T12:00:34;11.90;99.90
12315;DHT22;23886;46.614;14.276;2022-11-15T12:03:14;11.60;99.90
12315;DHT22;23886;46.614;14.276;2022-11-15T12:05:44;11.40;99.90
12315;DHT22;23886;46.614;14.276;2022-11-15T12:08:25;11.30;99.90
12315;DHT22;23886;46.614;14.276;2022-11-15T12:11:00;11.10;99.90
12315;DHT22;23886;46.614;14.276;2022-11-15T12:13:30;11.10;99.90
12315;DHT22;23886;46.614;14.276;2022-11-15T12:16:10;11.10;99.90
12315;DHT22;23886;46.614;14.276;2022-11-15T12:18:41;11.10;99.90
12315;DHT22;23886;46.614;14.276;2022-11-15T12:21:16;11.30;99.90
12315;DHT22;23886;46.614;14.276;2022-11-15T12:23:49;11.40;99.90
12315;DHT22;23886;46.614;14.276;2022-11-15T12:26:18;11.50;99.90
12315;DHT22;23886;46.614;14.276;2022-11-15T12:28:49;11.70;99.90
12315;DHT22;23886;46.614;14.276;2022-11-15T12:31:37;11.90;99.90
12315;DHT22;23886;46.614;14.276;2022-11-15T12:34:15;12.00;99.90
12315;DHT22;23886;46.614;14.276;2022-11-15T12:36:55;12.20;99.90
12315;DHT22;23886;46.614;14.276;2022-11-15T12:40:16;12.40;99.90
12315;DHT22;23886;46.614;14.276;2022-11-15T12:43:01;12.80;99.90
12315;DHT22;23886;46.614;14.276;2022-11-15T12:45:30;12.70;99.90
12315;DHT22;23886;46.614;14.276;2022-11-15T12:57:34;13.00;99.90
12315;DHT22;23886;46.614;14.276;2022-11-15T13:02:47;13.60;99.90
12315;DHT22;23886;46.614;14.276;2022-11-15T13:08:45;13.40;99.90
12315;DHT22;23886;46.614;14.276;2022-11-15T13:11:45;13.00;99.90
12315;DHT22;23886;46.614;14.276;2022-11-15T13:14:41;13.00;99.90
12315;DHT22;23886;46.614;14.276;2022-11-15T13:17:28;13.20;99.90
12315;DHT22;23886;46.614;14.276;2022-11-15T13:20:07;13.20;99.90
12315;DHT22;23886;46.614;14.276;2022-11-15T13:22:39;13.10;99.90
12315;DHT22;23886;46.614;14.276;2022-11-15T13:25:47;13.40;99.90
12315;DHT22;23886;46.614;14.276;2022-11-15T13:28:22;13.80;99.90
12315;DHT22;23886;46.614;14.276;2022-11-15T13:30:54;13.90;99.90
12315;DHT22;23886;46.614;14.276;2022-11-15T13:33:24;13.90;99.90
12315;DHT22;23886;46.614;14.276;2022-11-15T13:35:54;14.10;99.90
12315;DHT22;23886;46.614;14.276;2022-11-15T13:38:27;13.90;99.90
12315;DHT22;23886;46.614;14.276;2022-11-15T13:40:55;13.90;99.90
12315;DHT22;23886;46.614;14.276;2022-11-15T13:43:32;14.00;99.90
12315;DHT22;23886;46.614;14.276;2022-11-15T13:46:06;13.90;99.90
12315;DHT22;23886;46.614;14.276;2022-11-15T13:48:34;13.90;99.90
12315;DHT22;23886;46.614;14.276;2022-11-15T13:51:01;14.20;99.90
12315;DHT22;23886;46.614;14.276;2022-11-15T13:53:31;14.00;99.90
12315;DHT22;23886;46.614;14.276;2022-11-15T13:55:59;14.50;99.90
12315;DHT22;23886;46.614;14.276;2022-11-15T13:58:27;14.60;99.90
12315;DHT22;23886;46.614;14.276;2022-11-15T14:01:00;14.40;99.90
12315;DHT22;23886;46.614;14.276;2022-11-15T14:03:30;14.20;99.90
12315;DHT22;23886;46.614;14.276;2022-11-15T14:06:16;14.30;99.90
12315;DHT22;23886;46.614;14.276;2022-11-15T14:09:15;14.70;99.90
12315;DHT22;23886;46.614;14.276;2022-11-15T14:11:52;14.90;99.90
12315;DHT22;23886;46.614;14.276;2022-11-15T14:14:21;14.80;99.90
12315;DHT22;23886;46.614;14.276;2022-11-15T14:16:50;14.70;99.90
12315;DHT22;23886;46.614;14.276;2022-11-15T14:19:36;14.70;99.90
12315;DHT22;23886;46.614;14.276;2022-11-15T14:22:15;14.80;99.90
12315;DHT22;23886;46.614;14.276;2022-11-15T14:24:45;14.80;99.90
12315;DHT22;23886;46.614;14.276;2022-11-15T14:27:20;15.20;99.90
12315;DHT22;23886;46.614;14.276;2022-11-15T14:29:48;15.60;99.90
12315;DHT22;23886;46.614;14.276;2022-11-15T14:32:17;15.80;99.90
12315;DHT22;23886;46.614;14.276;2022-11-15T14:34:46;16.00;99.90
12315;DHT22;23886;46.614;14.276;2022-11-15T14:37:20;15.90;99.90
12315;DHT22;23886;46.614;14.276;2022-11-15T14:39:48;15.80;99.90
12315;DHT22;23886;46.614;14.276;2022-11-15T14:42:15;16.40;99.90
12315;DHT22;23886;46.614;14.276;2022-11-15T14:44:43;16.50;99.90
12315;DHT22;23886;46.614;14.276;2022-11-15T14:47:10;16.90;99.90
12315;DHT22;23886;46.614;14.276;2022-11-15T14:49:37;17.00;99.90
12315;DHT22;23886;46.614;14.276;2022-11-15T14:52:23;16.60;99.90
12315;DHT22;23886;46.614;14.276;2022-11-15T14:54:51;16.30;99.90
12315;DHT22;23886;46.614;14.276;2022-11-15T14:57:18;15.30;99.90
12315;DHT22;23886;46.614;14.276;2022-11-15T14:59:46;14.30;99.90
12315;DHT22;23886;46.614;14.276;2022-11-15T15:02:17;13.50;99.90
12315;DHT22;23886;46.614;14.276;2022-11-15T15:04:44;12.70;99.90
12315;DHT22;23886;46.614;14.276;2022-11-15T15:07:13;12.10;99.90
12315;DHT22;23886;46.614;14.276;2022-11-15T15:09:41;11.80;99.90
12315;DHT22;23886;46.614;14.276;2022-11-15T15:12:15;11.50;99.90
12315;DHT22;23886;46.614;14.276;2022-11-15T15:14:43;11.10;99.90
12315;DHT22;23886;46.614;14.276;2022-11-15T15:17:10;11.00;99.90
12315;DHT22;23886;46.614;14.276;2022-11-15T15:19:39;10.60;99.90
12315;DHT22;23886;46.614;14.276;2022-11-15T15:22:08;10.40;99.90
12315;DHT22;23886;46.614;14.276;2022-11-15T15:24:37;10.30;99.90
12315;DHT22;23886;46.614;14.276;2022-11-15T15:27:04;10.10;99.90
12315;DHT22;23886;46.614;14.276;2022-11-15T15:29:31;9.90;99.90
12315;DHT22;23886;46.614;14.276;2022-11-15T15:31:58;9.80;99.90
12315;DHT22;23886;46.614;14.276;2022-11-15T15:34:25;9.60;99.90
12315;DHT22;23886;46.614;14.276;2022-11-15T15:37:07;9.50;99.90
12315;DHT22;23886;46.614;14.276;2022-11-15T15:39:34;9.30;99.90
12315;DHT22;23886;46.614;14.276;2022-11-15T15:42:03;9.20;99.90
12315;DHT22;23886;46.614;14.276;2022-11-15T15:44:30;9.00;99.90
12315;DHT22;23886;46.614;14.276;2022-11-15T15:46:57;8.90;99.90
12315;DHT22;23886;46.614;14.276;2022-11-15T15:49:24;8.90;99.90
12315;DHT22;23886;46.614;14.276;2022-11-15T15:51:51;8.80;99.90
12315;DHT22;23886;46.614;14.276;2022-11-15T15:54:18;8.80;99.90
12315;DHT22;23886;46.614;14.276;2022-11-15T15:56:45;8.80;99.90
12315;DHT22;23886;46.614;14.276;2022-11-15T15:59:14;8.60;99.90
12315;DHT22;23886;46.614;14.276;2022-11-15T16:01:41;8.50;99.90
12315;DHT22;23886;46.614;14.276;2022-11-15T16:04:08;8.40;99.90
12315;DHT22;23886;46.614;14.276;2022-11-15T16:06:37;8.40;99.90
12315;DHT22;23886;46.614;14.276;2022-11-15T16:09:05;8.40;99.90
12315;DHT22;23886;46.614;14.276;2022-11-15T16:11:32;8.30;99.90
12315;DHT22;23886;46.614;14.276;2022-11-15T16:13:59;8.00;99.90